sensor_id;sensor_type;location;lat;lon;timestamp;pressure;altitude;pressure_sealevel;temperature;humidity
62057;BME280;48016;50.284;18.860;2023-05-20T00:01:06;99033.64;;;9.77;89.62
62057;BME280;48016;50.284;18.860;2023-05-20T00:03:32;99034.17;;;9.74;89.76
62057;BME280;48016;50.284;18.860;2023-05-20T00:05:59;99036.14;;;9.70;89.81
62057;BME280;48016;50.284;18.860;2023-05-20T00:08:25;99039.21;;;9.64;90.16
62057;BME280;48016;50.284;18.860;2023-05-20T00:10:52;99038.89;;;9.58;90.51
62057;BME280;48016;50.284;18.860;2023-05-20T00:13:19;99036.12;;;9.57;90.12
62057;BME280;48016;50.284;18.860;2023-05-20T00:15:45;99036.78;;;9.58;90.46
62057;BME280;48016;50.284;18.860;2023-05-20T00:18:12;99035.17;;;9.60;90.33
62057;BME280;48016;50.284;18.860;2023-05-20T00:20:38;99035.76;;;9.62;90.50
62057;BME280;48016;50.284;18.860;2023-05-20T00:23:05;99030.61;;;9.60;90.73
62057;BME280;48016;50.284;18.860;2023-05-20T00:25:32;99035.87;;;9.58;90.82
62057;BME280;48016;50.284;18.860;2023-05-20T00:27:58;99034.64;;;9.57;91.05
62057;BME280;48016;50.284;18.860;2023-05-20T00:30:25;99033.34;;;9.57;90.85
62057;BME280;48016;50.284;18.860;2023-05-20T00:32:51;99029.73;;;9.57;90.79
62057;BME280;48016;50.284;18.860;2023-05-20T00:35:18;99029.25;;;9.61;90.60
62057;BME280;48016;50.284;18.860;2023-05-20T00:37:45;99026.29;;;9.65;90.42
62057;BME280;48016;50.284;18.860;2023-05-20T00:40:11;99026.44;;;9.69;90.33
62057;BME280;48016;50.284;18.860;2023-05-20T00:42:38;99020.01;;;9.71;90.26
62057;BME280;48016;50.284;18.860;2023-05-20T00:45:05;99023.94;;;9.73;90.23
62057;BME280;48016;50.284;18.860;2023-05-20T00:47:32;99021.63;;;9.74;90.15
62057;BME280;48016;50.284;18.860;2023-05-20T00:50:02;99022.61;;;9.78;90.17
62057;BME280;48016;50.284;18.860;2023-05-20T00:52:30;99023.55;;;9.83;90.08
62057;BME280;48016;50.284;18.860;2023-05-20T00:54:57;99026.27;;;9.87;89.90
62057;BME280;48016;50.284;18.860;2023-05-20T00:57:25;99020.60;;;9.89;89.91
62057;BME280;48016;50.284;18.860;2023-05-20T00:59:52;99017.46;;;9.93;89.92
62057;BME280;48016;50.284;18.860;2023-05-20T01:02:19;99018.17;;;9.98;89.80
62057;BME280;48016;50.284;18.860;2023-05-20T01:04:46;99015.45;;;9.99;89.71
62057;BME280;48016;50.284;18.860;2023-05-20T01:07:17;99012.17;;;10.01;89.68
62057;BME280;48016;50.284;18.860;2023-05-20T01:09:44;99008.22;;;10.04;89.76
62057;BME280;48016;50.284;18.860;2023-05-20T01:12:22;99006.80;;;10.08;89.59
62057;BME280;48016;50.284;18.860;2023-05-20T01:15:00;99005.21;;;10.07;89.58
62057;BME280;48016;50.284;18.860;2023-05-20T01:17:30;99007.77;;;10.04;89.56
62057;BME280;48016;50.284;18.860;2023-05-20T01:20:03;99000.19;;;9.96;89.51
62057;BME280;48016;50.284;18.860;2023-05-20T01:22:32;98996.89;;;9.91;89.56
62057;BME280;48016;50.284;18.860;2023-05-20T01:24:59;99003.48;;;9.86;89.53
62057;BME280;48016;50.284;18.860;2023-05-20T01:27:28;99000.18;;;9.82;89.75
62057;BME280;48016;50.284;18.860;2023-05-20T01:29:55;98998.30;;;9.80;89.82
62057;BME280;48016;50.284;18.860;2023-05-20T01:32:26;99000.67;;;9.78;89.74
62057;BME280;48016;50.284;18.860;2023-05-20T01:34:54;98997.92;;;9.76;89.76
62057;BME280;48016;50.284;18.860;2023-05-20T01:37:22;98999.40;;;9.77;89.94
62057;BME280;48016;50.284;18.860;2023-05-20T01:39:51;98998.86;;;9.81;89.83
62057;BME280;48016;50.284;18.860;2023-05-20T01:42:19;99002.24;;;9.85;89.62
62057;BME280;48016;50.284;18.860;2023-05-20T01:44:46;99002.47;;;9.87;89.41
62057;BME280;48016;50.284;18.860;2023-05-20T01:47:13;99001.94;;;9.89;89.45
62057;BME280;48016;50.284;18.860;2023-05-20T01:49:39;99001.19;;;9.92;89.25
62057;BME280;48016;50.284;18.860;2023-05-20T01:52:06;99000.97;;;9.90;89.27
62057;BME280;48016;50.284;18.860;2023-05-20T01:54:33;99005.70;;;9.87;89.30
62057;BME280;48016;50.284;18.860;2023-05-20T01:57:00;99007.79;;;9.84;89.32
62057;BME280;48016;50.284;18.860;2023-05-20T01:59:26;99007.81;;;9.83;89.41
62057;BME280;48016;50.284;18.860;2023-05-20T02:01:53;99007.49;;;9.80;89.41
62057;BME280;48016;50.284;18.860;2023-05-20T02:04:20;99001.55;;;9.78;89.56
62057;BME280;48016;50.284;18.860;2023-05-20T02:06:47;98995.36;;;9.75;89.66
62057;BME280;48016;50.284;18.860;2023-05-20T02:09:14;98994.59;;;9.74;89.77
62057;BME280;48016;50.284;18.860;2023-05-20T02:11:41;98998.02;;;9.75;89.66
62057;BME280;48016;50.284;18.860;2023-05-20T02:14:07;98994.85;;;9.76;89.76
62057;BME280;48016;50.284;18.860;2023-05-20T02:16:34;98997.36;;;9.79;89.74
62057;BME280;48016;50.284;18.860;2023-05-20T02:19:00;99000.88;;;9.82;89.56
62057;BME280;48016;50.284;18.860;2023-05-20T02:21:27;99001.50;;;9.83;89.35
62057;BME280;48016;50.284;18.860;2023-05-20T02:23:54;99004.11;;;9.83;89.29
62057;BME280;48016;50.284;18.860;2023-05-20T02:26:20;99010.52;;;9.81;89.24
62057;BME280;48016;50.284;18.860;2023-05-20T02:28:47;99013.92;;;9.78;89.45
62057;BME280;48016;50.284;18.860;2023-05-20T02:31:16;99015.84;;;9.75;89.56
62057;BME280;48016;50.284;18.860;2023-05-20T02:33:43;99019.68;;;9.73;89.52
62057;BME280;48016;50.284;18.860;2023-05-20T02:36:10;99022.34;;;9.71;89.55
62057;BME280;48016;50.284;18.860;2023-05-20T02:38:37;99024.86;;;9.69;89.83
62057;BME280;48016;50.284;18.860;2023-05-20T02:41:03;99021.14;;;9.65;89.87
62057;BME280;48016;50.284;18.860;2023-05-20T02:43:31;99023.04;;;9.63;89.93
62057;BME280;48016;50.284;18.860;2023-05-20T02:45:58;99014.98;;;9.63;89.78
62057;BME280;48016;50.284;18.860;2023-05-20T02:48:24;99016.52;;;9.62;89.85
62057;BME280;48016;50.284;18.860;2023-05-20T02:50:51;99016.71;;;9.59;89.99
62057;BME280;48016;50.284;18.860;2023-05-20T02:53:18;99017.59;;;9.55;90.40
62057;BME280;48016;50.284;18.860;2023-05-20T02:55:46;99017.11;;;9.54;90.48
62057;BME280;48016;50.284;18.860;2023-05-20T02:58:15;99015.75;;;9.50;90.61
62057;BME280;48016;50.284;18.860;2023-05-20T03:00:42;99018.21;;;9.49;90.62
62057;BME280;48016;50.284;18.860;2023-05-20T03:03:09;99019.77;;;9.49;90.67
62057;BME280;48016;50.284;18.860;2023-05-20T03:05:36;99023.75;;;9.49;90.76
62057;BME280;48016;50.284;18.860;2023-05-20T03:08:07;99023.67;;;9.48;90.69
62057;BME280;48016;50.284;18.860;2023-05-20T03:10:37;99020.77;;;9.48;90.74
62057;BME280;48016;50.284;18.860;2023-05-20T03:13:06;99022.23;;;9.50;90.57
62057;BME280;48016;50.284;18.860;2023-05-20T03:15:43;99028.27;;;9.52;90.77
62057;BME280;48016;50.284;18.860;2023-05-20T03:18:10;99027.62;;;9.54;90.81
62057;BME280;48016;50.284;18.860;2023-05-20T03:20:50;99024.91;;;9.56;90.73
62057;BME280;48016;50.284;18.860;2023-05-20T03:23:16;99023.06;;;9.53;91.13
62057;BME280;48016;50.284;18.860;2023-05-20T03:25:43;99025.09;;;9.55;91.10
62057;BME280;48016;50.284;18.860;2023-05-20T03:28:10;99022.77;;;9.54;91.09
62057;BME280;48016;50.284;18.860;2023-05-20T03:30:37;99024.15;;;9.56;91.03
62057;BME280;48016;50.284;18.860;2023-05-20T03:33:03;99027.08;;;9.59;91.21
62057;BME280;48016;50.284;18.860;2023-05-20T03:35:31;99027.88;;;9.64;91.04
62057;BME280;48016;50.284;18.860;2023-05-20T03:37:57;99031.55;;;9.69;91.17
62057;BME280;48016;50.284;18.860;2023-05-20T03:40:26;99029.42;;;9.72;91.18
62057;BME280;48016;50.284;18.860;2023-05-20T03:42:53;99029.09;;;9.74;91.10
62057;BME280;48016;50.284;18.860;2023-05-20T03:45:20;99031.45;;;9.75;91.29
62057;BME280;48016;50.284;18.860;2023-05-20T03:47:46;99027.42;;;9.74;91.39
62057;BME280;48016;50.284;18.860;2023-05-20T03:50:13;99028.31;;;9.77;91.30
62057;BME280;48016;50.284;18.860;2023-05-20T03:52:39;99025.64;;;9.76;91.76
62057;BME280;48016;50.284;18.860;2023-05-20T03:55:06;99027.67;;;9.78;91.62
62057;BME280;48016;50.284;18.860;2023-05-20T03:57:33;99029.91;;;9.81;91.52
62057;BME280;48016;50.284;18.860;2023-05-20T04:00:03;99027.92;;;9.81;91.66
62057;BME280;48016;50.284;18.860;2023-05-20T04:02:35;99027.80;;;9.83;91.55
62057;BME280;48016;50.284;18.860;2023-05-20T04:05:02;99029.51;;;9.84;91.60
62057;BME280;48016;50.284;18.860;2023-05-20T04:07:29;99030.17;;;9.85;91.55
62057;BME280;48016;50.284;18.860;2023-05-20T04:09:55;99028.32;;;9.84;91.66
62057;BME280;48016;50.284;18.860;2023-05-20T04:12:22;99025.74;;;9.87;91.63
62057;BME280;48016;50.284;18.860;2023-05-20T04:14:51;99025.12;;;9.90;91.37
62057;BME280;48016;50.284;18.860;2023-05-20T04:17:17;99026.41;;;9.94;91.51
62057;BME280;48016;50.284;18.860;2023-05-20T04:19:44;99023.33;;;9.92;91.42
62057;BME280;48016;50.284;18.860;2023-05-20T04:22:11;99025.77;;;9.90;91.58
62057;BME280;48016;50.284;18.860;2023-05-20T04:24:38;99030.86;;;9.93;91.48
62057;BME280;48016;50.284;18.860;2023-05-20T04:27:04;99037.06;;;9.95;91.56
62057;BME280;48016;50.284;18.860;2023-05-20T04:29:31;99032.17;;;9.95;91.56
62057;BME280;48016;50.284;18.860;2023-05-20T04:31:59;99036.19;;;9.99;91.63
62057;BME280;48016;50.284;18.860;2023-05-20T04:34:29;99041.67;;;10.02;91.47
62057;BME280;48016;50.284;18.860;2023-05-20T04:36:56;99043.08;;;10.03;91.43
62057;BME280;48016;50.284;18.860;2023-05-20T04:39:23;99041.45;;;10.05;91.39
62057;BME280;48016;50.284;18.860;2023-05-20T04:41:49;99038.10;;;10.09;91.35
62057;BME280;48016;50.284;18.860;2023-05-20T04:44:16;99035.45;;;10.11;91.40
62057;BME280;48016;50.284;18.860;2023-05-20T04:46:42;99028.30;;;10.13;91.34
62057;BME280;48016;50.284;18.860;2023-05-20T04:49:10;99029.48;;;10.16;91.29
62057;BME280;48016;50.284;18.860;2023-05-20T04:51:36;99029.99;;;10.21;91.09
62057;BME280;48016;50.284;18.860;2023-05-20T04:54:03;99034.04;;;10.25;91.05
62057;BME280;48016;50.284;18.860;2023-05-20T04:56:29;99037.06;;;10.30;90.99
62057;BME280;48016;50.284;18.860;2023-05-20T04:58:56;99036.09;;;10.35;90.91
62057;BME280;48016;50.284;18.860;2023-05-20T05:01:23;99035.27;;;10.39;90.78
62057;BME280;48016;50.284;18.860;2023-05-20T05:03:50;99027.05;;;10.41;90.77
62057;BME280;48016;50.284;18.860;2023-05-20T05:06:17;99030.27;;;10.51;90.72
62057;BME280;48016;50.284;18.860;2023-05-20T05:08:43;99034.86;;;10.57;90.46
62057;BME280;48016;50.284;18.860;2023-05-20T05:11:10;99040.20;;;10.64;90.36
62057;BME280;48016;50.284;18.860;2023-05-20T05:13:37;99045.61;;;10.74;90.29
62057;BME280;48016;50.284;18.860;2023-05-20T05:16:04;99040.64;;;10.81;89.98
62057;BME280;48016;50.284;18.860;2023-05-20T05:18:31;99039.95;;;10.87;89.79
62057;BME280;48016;50.284;18.860;2023-05-20T05:21:02;99033.44;;;10.92;89.60
62057;BME280;48016;50.284;18.860;2023-05-20T05:23:29;99032.89;;;10.94;89.45
62057;BME280;48016;50.284;18.860;2023-05-20T05:25:56;99033.22;;;10.97;89.44
62057;BME280;48016;50.284;18.860;2023-05-20T05:28:23;99032.30;;;11.00;89.35
62057;BME280;48016;50.284;18.860;2023-05-20T05:30:50;99027.29;;;11.04;89.24
62057;BME280;48016;50.284;18.860;2023-05-20T05:33:19;99025.59;;;11.07;89.32
62057;BME280;48016;50.284;18.860;2023-05-20T05:35:45;99023.75;;;11.14;89.12
62057;BME280;48016;50.284;18.860;2023-05-20T05:38:12;99023.02;;;11.18;89.00
62057;BME280;48016;50.284;18.860;2023-05-20T05:40:39;99023.41;;;11.20;88.80
62057;BME280;48016;50.284;18.860;2023-05-20T05:43:06;99026.02;;;11.24;88.79
62057;BME280;48016;50.284;18.860;2023-05-20T05:45:32;99029.70;;;11.29;88.69
62057;BME280;48016;50.284;18.860;2023-05-20T05:47:59;99027.02;;;11.34;88.42
62057;BME280;48016;50.284;18.860;2023-05-20T05:50:26;99023.52;;;11.38;88.42
62057;BME280;48016;50.284;18.860;2023-05-20T05:52:52;99025.45;;;11.43;88.34
62057;BME280;48016;50.284;18.860;2023-05-20T05:55:19;99025.36;;;11.50;88.24
62057;BME280;48016;50.284;18.860;2023-05-20T05:57:46;99025.23;;;11.56;87.87
62057;BME280;48016;50.284;18.860;2023-05-20T06:00:12;99027.06;;;11.60;87.91
62057;BME280;48016;50.284;18.860;2023-05-20T06:02:39;99028.56;;;11.68;87.84
62057;BME280;48016;50.284;18.860;2023-05-20T06:05:06;99028.23;;;11.72;87.26
62057;BME280;48016;50.284;18.860;2023-05-20T06:07:33;99027.34;;;11.73;87.23
62057;BME280;48016;50.284;18.860;2023-05-20T06:10:00;99023.17;;;11.77;87.27
62057;BME280;48016;50.284;18.860;2023-05-20T06:12:27;99021.48;;;11.79;86.89
62057;BME280;48016;50.284;18.860;2023-05-20T06:14:53;99019.98;;;11.77;86.73
62057;BME280;48016;50.284;18.860;2023-05-20T06:17:20;99021.02;;;11.81;86.89
62057;BME280;48016;50.284;18.860;2023-05-20T06:19:47;99016.65;;;11.82;86.73
62057;BME280;48016;50.284;18.860;2023-05-20T06:22:13;99019.15;;;11.85;86.81
62057;BME280;48016;50.284;18.860;2023-05-20T06:24:40;99013.90;;;11.87;86.68
62057;BME280;48016;50.284;18.860;2023-05-20T06:27:06;99009.91;;;11.92;86.53
62057;BME280;48016;50.284;18.860;2023-05-20T06:29:33;99015.15;;;11.97;86.26
62057;BME280;48016;50.284;18.860;2023-05-20T06:32:00;99010.02;;;11.98;86.04
62057;BME280;48016;50.284;18.860;2023-05-20T06:34:26;99014.23;;;12.01;86.15
62057;BME280;48016;50.284;18.860;2023-05-20T06:36:53;99011.77;;;12.03;86.11
62057;BME280;48016;50.284;18.860;2023-05-20T06:39:21;99011.31;;;12.08;86.06
62057;BME280;48016;50.284;18.860;2023-05-20T06:41:47;99007.36;;;12.15;85.91
62057;BME280;48016;50.284;18.860;2023-05-20T06:44:14;99012.98;;;12.22;85.71
62057;BME280;48016;50.284;18.860;2023-05-20T06:46:41;99010.81;;;12.26;85.20
62057;BME280;48016;50.284;18.860;2023-05-20T06:49:07;99017.68;;;12.25;85.15
62057;BME280;48016;50.284;18.860;2023-05-20T06:51:34;99017.73;;;12.32;85.28
62057;BME280;48016;50.284;18.860;2023-05-20T06:54:00;99019.07;;;12.41;84.56
62057;BME280;48016;50.284;18.860;2023-05-20T06:56:27;99016.30;;;12.52;84.08
62057;BME280;48016;50.284;18.860;2023-05-20T06:58:54;99015.98;;;12.61;84.02
62057;BME280;48016;50.284;18.860;2023-05-20T07:01:20;99016.70;;;12.71;83.68
62057;BME280;48016;50.284;18.860;2023-05-20T07:03:47;99013.88;;;12.82;83.76
62057;BME280;48016;50.284;18.860;2023-05-20T07:06:14;99009.79;;;12.90;83.18
62057;BME280;48016;50.284;18.860;2023-05-20T07:08:40;99006.98;;;13.01;83.26
62057;BME280;48016;50.284;18.860;2023-05-20T07:11:07;99005.59;;;13.12;83.30
62057;BME280;48016;50.284;18.860;2023-05-20T07:13:33;99003.79;;;13.23;83.07
62057;BME280;48016;50.284;18.860;2023-05-20T07:16:00;99007.58;;;13.37;82.79
62057;BME280;48016;50.284;18.860;2023-05-20T07:18:27;99005.73;;;13.46;82.38
62057;BME280;48016;50.284;18.860;2023-05-20T07:20:53;99004.79;;;13.51;81.82
62057;BME280;48016;50.284;18.860;2023-05-20T07:23:22;99002.79;;;13.57;81.84
62057;BME280;48016;50.284;18.860;2023-05-20T07:25:49;98999.22;;;13.60;81.55
62057;BME280;48016;50.284;18.860;2023-05-20T07:28:16;98996.81;;;13.69;81.75
62057;BME280;48016;50.284;18.860;2023-05-20T07:30:43;98996.77;;;13.71;80.87
62057;BME280;48016;50.284;18.860;2023-05-20T07:33:16;98995.97;;;13.72;80.65
62057;BME280;48016;50.284;18.860;2023-05-20T07:35:43;98992.64;;;13.76;80.71
62057;BME280;48016;50.284;18.860;2023-05-20T07:38:10;98998.06;;;13.88;80.72
62057;BME280;48016;50.284;18.860;2023-05-20T07:40:39;98999.11;;;13.90;79.71
62057;BME280;48016;50.284;18.860;2023-05-20T07:43:07;99002.57;;;13.87;79.62
62057;BME280;48016;50.284;18.860;2023-05-20T07:45:34;99001.58;;;13.87;79.77
62057;BME280;48016;50.284;18.860;2023-05-20T07:48:03;99001.61;;;13.88;79.25
62057;BME280;48016;50.284;18.860;2023-05-20T07:50:29;99002.27;;;13.92;79.31
62057;BME280;48016;50.284;18.860;2023-05-20T07:52:56;99002.05;;;13.97;79.19
62057;BME280;48016;50.284;18.860;2023-05-20T07:55:23;99002.05;;;14.03;79.14
62057;BME280;48016;50.284;18.860;2023-05-20T07:57:50;99000.23;;;14.08;79.18
62057;BME280;48016;50.284;18.860;2023-05-20T08:00:16;98993.46;;;14.20;79.30
62057;BME280;48016;50.284;18.860;2023-05-20T08:02:43;98988.00;;;14.42;78.97
62057;BME280;48016;50.284;18.860;2023-05-20T08:05:10;98986.69;;;14.65;78.52
62057;BME280;48016;50.284;18.860;2023-05-20T08:07:36;98982.09;;;14.82;77.67
62057;BME280;48016;50.284;18.860;2023-05-20T08:10:03;98978.17;;;15.01;77.86
62057;BME280;48016;50.284;18.860;2023-05-20T08:12:30;98969.34;;;15.17;76.97
62057;BME280;48016;50.284;18.860;2023-05-20T08:14:56;98969.43;;;15.36;76.54
62057;BME280;48016;50.284;18.860;2023-05-20T08:17:23;98969.08;;;15.46;75.73
62057;BME280;48016;50.284;18.860;2023-05-20T08:19:50;98964.06;;;15.49;75.02
62057;BME280;48016;50.284;18.860;2023-05-20T08:22:16;98961.94;;;15.63;75.49
62057;BME280;48016;50.284;18.860;2023-05-20T08:24:43;98957.90;;;15.70;74.71
62057;BME280;48016;50.284;18.860;2023-05-20T08:27:09;98955.94;;;15.82;74.83
62057;BME280;48016;50.284;18.860;2023-05-20T08:29:36;98955.64;;;16.03;74.74
62057;BME280;48016;50.284;18.860;2023-05-20T08:32:03;98957.84;;;16.09;73.31
62057;BME280;48016;50.284;18.860;2023-05-20T08:34:30;98949.65;;;16.02;72.56
62057;BME280;48016;50.284;18.860;2023-05-20T08:36:56;98954.18;;;16.06;73.07
62057;BME280;48016;50.284;18.860;2023-05-20T08:39:24;98960.81;;;16.19;72.59
62057;BME280;48016;50.284;18.860;2023-05-20T08:41:51;98961.42;;;16.33;72.45
62057;BME280;48016;50.284;18.860;2023-05-20T08:44:18;98954.80;;;16.44;72.78
62057;BME280;48016;50.284;18.860;2023-05-20T08:46:44;98957.77;;;16.57;72.01
62057;BME280;48016;50.284;18.860;2023-05-20T08:49:11;98955.50;;;16.63;71.77
62057;BME280;48016;50.284;18.860;2023-05-20T08:51:38;98961.80;;;16.79;72.23
62057;BME280;48016;50.284;18.860;2023-05-20T08:54:06;98963.43;;;16.94;71.61
62057;BME280;48016;50.284;18.860;2023-05-20T08:56:34;98962.13;;;17.03;70.89
62057;BME280;48016;50.284;18.860;2023-05-20T08:59:02;98961.44;;;17.02;69.79
62057;BME280;48016;50.284;18.860;2023-05-20T09:01:29;98960.91;;;17.06;70.37
62057;BME280;48016;50.284;18.860;2023-05-20T09:03:55;98959.06;;;17.15;70.14
62057;BME280;48016;50.284;18.860;2023-05-20T09:06:22;98959.44;;;17.18;69.54
62057;BME280;48016;50.284;18.860;2023-05-20T09:08:49;98964.15;;;17.13;69.06
62057;BME280;48016;50.284;18.860;2023-05-20T09:11:19;98961.91;;;17.13;69.88
62057;BME280;48016;50.284;18.860;2023-05-20T09:13:49;98965.52;;;17.24;69.97
62057;BME280;48016;50.284;18.860;2023-05-20T09:16:15;98962.67;;;17.32;69.34
62057;BME280;48016;50.284;18.860;2023-05-20T09:18:42;98957.98;;;17.34;68.89
62057;BME280;48016;50.284;18.860;2023-05-20T09:21:08;98963.14;;;17.45;69.07
62057;BME280;48016;50.284;18.860;2023-05-20T09:23:36;98961.40;;;17.68;68.81
62057;BME280;48016;50.284;18.860;2023-05-20T09:26:03;98956.95;;;17.80;67.50
62057;BME280;48016;50.284;18.860;2023-05-20T09:28:30;98956.28;;;17.89;67.25
62057;BME280;48016;50.284;18.860;2023-05-20T09:30:58;98954.38;;;18.12;67.41
62057;BME280;48016;50.284;18.860;2023-05-20T09:33:29;98950.28;;;18.47;67.68
62057;BME280;48016;50.284;18.860;2023-05-20T09:36:03;98936.73;;;18.68;65.76
62057;BME280;48016;50.284;18.860;2023-05-20T09:38:33;98937.45;;;18.78;65.27
62057;BME280;48016;50.284;18.860;2023-05-20T09:41:06;98937.10;;;18.75;65.62
62057;BME280;48016;50.284;18.860;2023-05-20T09:43:35;98934.79;;;18.61;65.33
62057;BME280;48016;50.284;18.860;2023-05-20T09:46:03;98935.11;;;18.43;65.54
62057;BME280;48016;50.284;18.860;2023-05-20T09:48:30;98929.84;;;18.38;65.96
62057;BME280;48016;50.284;18.860;2023-05-20T09:50:57;98926.84;;;18.48;65.72
62057;BME280;48016;50.284;18.860;2023-05-20T09:53:26;98926.74;;;18.57;65.91
62057;BME280;48016;50.284;18.860;2023-05-20T09:55:56;98931.91;;;18.40;65.41
62057;BME280;48016;50.284;18.860;2023-05-20T09:58:23;98937.27;;;18.26;65.99
62057;BME280;48016;50.284;18.860;2023-05-20T10:00:51;98934.70;;;18.15;66.44
62057;BME280;48016;50.284;18.860;2023-05-20T10:03:21;98938.89;;;18.11;66.45
62057;BME280;48016;50.284;18.860;2023-05-20T10:11:49;98932.77;;;18.06;67.17
62057;BME280;48016;50.284;18.860;2023-05-20T10:14:32;98938.90;;;18.10;66.79
62057;BME280;48016;50.284;18.860;2023-05-20T10:17:15;98935.67;;;18.10;66.45
62057;BME280;48016;50.284;18.860;2023-05-20T10:19:42;98931.08;;;18.04;66.52
62057;BME280;48016;50.284;18.860;2023-05-20T10:22:10;98926.73;;;18.07;66.73
62057;BME280;48016;50.284;18.860;2023-05-20T10:24:42;98928.07;;;18.10;66.77
62057;BME280;48016;50.284;18.860;2023-05-20T10:27:10;98922.58;;;18.17;66.97
62057;BME280;48016;50.284;18.860;2023-05-20T10:29:48;98923.63;;;18.22;67.12
62057;BME280;48016;50.284;18.860;2023-05-20T10:32:28;98921.11;;;18.22;66.60
62057;BME280;48016;50.284;18.860;2023-05-20T10:35:01;98915.16;;;18.05;66.22
62057;BME280;48016;50.284;18.860;2023-05-20T10:37:41;98918.15;;;17.88;66.59
62057;BME280;48016;50.284;18.860;2023-05-20T10:40:10;98915.09;;;17.61;67.30
62057;BME280;48016;50.284;18.860;2023-05-20T10:42:37;98909.92;;;17.58;67.64
62057;BME280;48016;50.284;18.860;2023-05-20T10:45:05;98904.66;;;17.66;67.49
62057;BME280;48016;50.284;18.860;2023-05-20T10:47:32;98902.27;;;17.83;68.06
62057;BME280;48016;50.284;18.860;2023-05-20T10:49:59;98902.41;;;18.14;67.50
62057;BME280;48016;50.284;18.860;2023-05-20T10:52:37;98903.69;;;18.32;66.59
62057;BME280;48016;50.284;18.860;2023-05-20T10:55:04;98899.09;;;18.33;66.32
62057;BME280;48016;50.284;18.860;2023-05-20T10:57:31;98896.41;;;18.28;66.28
62057;BME280;48016;50.284;18.860;2023-05-20T10:59:59;98905.56;;;18.23;66.34
62057;BME280;48016;50.284;18.860;2023-05-20T11:02:26;98900.76;;;18.17;66.89
62057;BME280;48016;50.284;18.860;2023-05-20T11:04:57;98900.75;;;18.17;66.77
62057;BME280;48016;50.284;18.860;2023-05-20T11:07:28;98897.54;;;18.24;66.81
62057;BME280;48016;50.284;18.860;2023-05-20T11:09:55;98889.01;;;18.28;66.85
62057;BME280;48016;50.284;18.860;2023-05-20T11:12:26;98890.41;;;18.40;66.53
62057;BME280;48016;50.284;18.860;2023-05-20T11:14:53;98888.20;;;18.52;66.52
62057;BME280;48016;50.284;18.860;2023-05-20T11:17:20;98888.44;;;18.45;66.39
62057;BME280;48016;50.284;18.860;2023-05-20T11:19:47;98888.23;;;18.48;66.38
62057;BME280;48016;50.284;18.860;2023-05-20T11:22:13;98888.52;;;18.46;65.89
62057;BME280;48016;50.284;18.860;2023-05-20T11:24:40;98882.27;;;18.43;65.85
62057;BME280;48016;50.284;18.860;2023-05-20T11:27:07;98871.35;;;18.45;66.07
62057;BME280;48016;50.284;18.860;2023-05-20T11:29:34;98863.20;;;18.49;66.34
62057;BME280;48016;50.284;18.860;2023-05-20T11:32:00;98871.40;;;18.60;66.42
62057;BME280;48016;50.284;18.860;2023-05-20T11:34:35;98871.59;;;18.48;65.72
62057;BME280;48016;50.284;18.860;2023-05-20T11:37:06;98875.61;;;18.42;65.69
62057;BME280;48016;50.284;18.860;2023-05-20T11:39:33;98875.31;;;18.35;65.99
62057;BME280;48016;50.284;18.860;2023-05-20T11:41:59;98865.55;;;18.32;66.10
62057;BME280;48016;50.284;18.860;2023-05-20T11:44:26;98856.51;;;18.24;66.21
62057;BME280;48016;50.284;18.860;2023-05-20T11:47:00;98852.88;;;18.10;66.65
62057;BME280;48016;50.284;18.860;2023-05-20T11:49:27;98850.53;;;18.05;66.99
62057;BME280;48016;50.284;18.860;2023-05-20T11:51:54;98849.41;;;17.97;67.41
62057;BME280;48016;50.284;18.860;2023-05-20T11:54:22;98844.00;;;18.01;67.87
62057;BME280;48016;50.284;18.860;2023-05-20T11:56:49;98837.64;;;18.08;67.61
62057;BME280;48016;50.284;18.860;2023-05-20T11:59:16;98838.84;;;18.03;67.70
62057;BME280;48016;50.284;18.860;2023-05-20T12:01:42;98845.97;;;18.06;67.56
62057;BME280;48016;50.284;18.860;2023-05-20T12:04:10;98848.27;;;18.00;67.34
62057;BME280;48016;50.284;18.860;2023-05-20T12:06:38;98841.40;;;17.94;67.95
62057;BME280;48016;50.284;18.860;2023-05-20T12:09:06;98840.67;;;17.96;67.64
62057;BME280;48016;50.284;18.860;2023-05-20T12:11:37;98837.88;;;17.96;67.86
62057;BME280;48016;50.284;18.860;2023-05-20T12:14:06;98829.65;;;17.98;68.03
62057;BME280;48016;50.284;18.860;2023-05-20T12:16:34;98827.06;;;18.04;68.31
62057;BME280;48016;50.284;18.860;2023-05-20T12:19:01;98819.68;;;18.03;68.24
62057;BME280;48016;50.284;18.860;2023-05-20T12:21:28;98828.14;;;18.01;68.29
62057;BME280;48016;50.284;18.860;2023-05-20T12:23:55;98816.88;;;18.00;68.52
62057;BME280;48016;50.284;18.860;2023-05-20T12:26:28;98812.70;;;18.11;68.93
62057;BME280;48016;50.284;18.860;2023-05-20T12:28:55;98808.01;;;18.27;69.19
62057;BME280;48016;50.284;18.860;2023-05-20T12:31:22;98803.45;;;18.43;68.67
62057;BME280;48016;50.284;18.860;2023-05-20T12:33:49;98806.73;;;18.55;68.33
62057;BME280;48016;50.284;18.860;2023-05-20T12:36:16;98805.02;;;18.59;67.12
62057;BME280;48016;50.284;18.860;2023-05-20T12:38:44;98803.13;;;18.50;66.64
62057;BME280;48016;50.284;18.860;2023-05-20T12:41:11;98795.83;;;18.51;67.58
62057;BME280;48016;50.284;18.860;2023-05-20T12:43:38;98792.55;;;18.62;67.74
62057;BME280;48016;50.284;18.860;2023-05-20T12:46:04;98801.61;;;18.73;67.11
62057;BME280;48016;50.284;18.860;2023-05-20T12:48:31;98793.30;;;18.71;66.90
62057;BME280;48016;50.284;18.860;2023-05-20T12:50:58;98791.52;;;18.70;67.22
62057;BME280;48016;50.284;18.860;2023-05-20T12:53:25;98795.52;;;18.78;67.15
62057;BME280;48016;50.284;18.860;2023-05-20T12:55:52;98795.11;;;18.87;67.07
62057;BME280;48016;50.284;18.860;2023-05-20T12:58:18;98791.73;;;18.93;66.89
62057;BME280;48016;50.284;18.860;2023-05-20T13:00:45;98787.55;;;18.99;67.15